createdAt,value
2019-05-22T00:03:17.781Z,49.90
2019-05-22T00:05:47.973Z,49.90
2019-05-22T00:11:07.726Z,49.90
2019-05-22T00:13:39.924Z,50.00
2019-05-22T00:16:28.057Z,50.00
2019-05-22T00:18:57.351Z,50.00
2019-05-22T00:21:28.407Z,50.10
2019-05-22T00:24:16.731Z,50.10
2019-05-22T00:29:33.904Z,50.10
2019-05-22T00:40:54.888Z,50.00
2019-05-22T00:52:32.096Z,50.30
2019-05-22T00:55:40.554Z,50.40
2019-05-22T01:02:01.815Z,50.30
2019-05-22T01:15:58.645Z,50.50
2019-05-22T01:21:37.712Z,50.50
2019-05-22T01:24:26.246Z,50.70
2019-05-22T01:29:31.414Z,50.60
2019-05-22T01:35:16.550Z,50.80
2019-05-22T01:37:45.439Z,50.80
2019-05-22T01:40:55.189Z,50.80
2019-05-22T01:43:26.023Z,50.90
2019-05-22T01:45:53.959Z,50.90
2019-05-22T01:48:25.668Z,50.80
2019-05-22T01:51:14.762Z,50.80
2019-05-22T01:53:43.935Z,50.90
2019-05-22T01:59:21.702Z,50.90
2019-05-22T02:02:11.919Z,50.80
2019-05-22T02:05:02.158Z,50.90
2019-05-22T02:07:31.780Z,51.20
2019-05-22T02:10:42.536Z,51.20
2019-05-22T02:13:11.267Z,51.10
2019-05-22T02:18:55.375Z,51.20
2019-05-22T02:21:44.074Z,51.30
2019-05-22T02:24:32.395Z,51.30
2019-05-22T02:35:54.667Z,50.60
2019-05-22T02:38:24.971Z,51.30
2019-05-22T02:41:14.360Z,51.40
2019-05-22T02:43:43.509Z,51.30
2019-05-22T02:46:13.807Z,51.40
2019-05-22T02:48:42.745Z,51.40
2019-05-22T02:51:31.360Z,51.40
2019-05-22T02:54:00.071Z,51.50
2019-05-22T02:59:18.766Z,51.40
2019-05-22T03:01:48.106Z,51.40
2019-05-22T03:07:45.829Z,51.60
2019-05-22T03:19:53.293Z,51.60
2019-05-22T03:23:04.430Z,51.70
2019-05-22T03:29:01.492Z,51.70
2019-05-22T03:31:43.155Z,51.80
2019-05-22T03:34:24.898Z,51.70
2019-05-22T03:37:07.028Z,51.70
2019-05-22T03:39:47.700Z,51.80
2019-05-22T03:42:28.446Z,51.70
2019-05-22T03:45:10.446Z,51.80
2019-05-22T03:47:52.238Z,51.70
2019-05-22T03:50:33.683Z,51.80
2019-05-22T03:53:15.116Z,51.70
2019-05-22T03:55:56.463Z,51.60
2019-05-22T03:58:37.913Z,51.60
2019-05-22T04:01:21.071Z,51.70
2019-05-22T04:04:02.844Z,51.80
2019-05-22T04:06:44.400Z,51.70
2019-05-22T04:09:27.422Z,51.70
2019-05-22T04:12:08.365Z,51.70
2019-05-22T04:14:49.281Z,51.80
2019-05-22T04:17:30.039Z,51.90
2019-05-22T04:20:11.173Z,51.80
2019-05-22T04:26:01.957Z,51.80
2019-05-22T04:28:42.798Z,51.90
2019-05-22T04:31:23.747Z,51.80
2019-05-22T04:34:05.481Z,51.80
2019-05-22T04:36:47.171Z,52.00
2019-05-22T04:39:29.210Z,51.90
2019-05-22T04:42:11.876Z,51.80
2019-05-22T04:44:53.173Z,51.80
2019-05-22T04:47:34.164Z,51.80
2019-05-22T04:50:16.793Z,52.00
2019-05-22T04:52:58.118Z,51.80
2019-05-22T04:55:39.148Z,51.80
2019-05-22T04:58:24.473Z,51.80
2019-05-22T05:01:05.591Z,51.80
2019-05-22T05:03:47.669Z,51.80
2019-05-22T05:06:31.178Z,51.80
2019-05-22T05:09:13.456Z,51.80
2019-05-22T05:11:54.711Z,51.90
2019-05-22T05:14:35.617Z,52.00
2019-05-22T05:17:16.856Z,52.00
2019-05-22T05:19:57.768Z,51.90
2019-05-22T05:22:39.155Z,51.90
2019-05-22T05:25:20.459Z,52.10
2019-05-22T05:28:03.050Z,52.00
2019-05-22T05:30:43.632Z,52.20
2019-05-22T05:33:25.142Z,52.30
2019-05-22T05:36:07.422Z,52.50
2019-05-22T05:38:48.334Z,52.20
2019-05-22T05:41:31.177Z,52.40
2019-05-22T05:44:12.022Z,52.40
2019-05-22T05:46:53.406Z,52.20
2019-05-22T05:49:35.504Z,52.30
2019-05-22T05:52:16.721Z,52.30
2019-05-22T05:54:57.647Z,52.50
2019-05-22T05:57:38.490Z,52.40
2019-05-22T06:00:21.108Z,52.60
2019-05-22T06:03:02.404Z,52.50
2019-05-22T06:05:43.910Z,52.50
2019-05-22T06:08:25.027Z,52.50
2019-05-22T06:11:06.438Z,52.50
2019-05-22T06:13:46.970Z,52.60
2019-05-22T06:16:29.345Z,52.60
2019-05-22T06:19:10.840Z,52.70
2019-05-22T06:21:51.800Z,52.80
2019-05-22T06:24:33.010Z,52.70
2019-05-22T06:27:19.063Z,52.70
2019-05-22T06:30:03.924Z,52.70
2019-05-22T06:32:46.074Z,52.60
2019-05-22T06:35:26.647Z,52.50
2019-05-22T06:38:08.005Z,52.50
2019-05-22T06:40:48.754Z,52.60
2019-05-22T06:43:30.174Z,52.80
2019-05-22T06:46:11.627Z,53.00
2019-05-22T06:48:52.863Z,52.90
2019-05-22T06:51:33.754Z,52.80
2019-05-22T06:54:14.587Z,52.80
2019-05-22T06:56:55.817Z,53.00
2019-05-22T06:59:38.384Z,53.00
2019-05-22T07:04:42.647Z,52.90
2019-05-22T07:09:48.306Z,52.70
2019-05-22T07:15:55.664Z,52.60
2019-05-22T07:18:43.915Z,52.80
2019-05-22T07:21:13.303Z,52.60
2019-05-22T07:24:01.544Z,52.90
2019-05-22T07:26:50.161Z,52.80
2019-05-22T07:29:19.258Z,52.80
2019-05-22T07:31:48.295Z,52.80
2019-05-22T07:34:36.903Z,52.80
2019-05-22T07:37:05.586Z,52.70
2019-05-22T07:39:34.271Z,53.00
2019-05-22T07:42:22.216Z,53.00
2019-05-22T07:44:51.240Z,53.00
2019-05-22T07:47:42.512Z,52.70
2019-05-22T07:50:14.877Z,52.70
2019-05-22T07:52:43.680Z,52.50
2019-05-22T07:55:12.919Z,52.50
2019-05-22T07:57:41.620Z,52.80
2019-05-22T08:00:30.132Z,52.80
2019-05-22T08:03:18.356Z,53.00
2019-05-22T08:06:06.849Z,52.70
2019-05-22T08:08:35.995Z,52.70
2019-05-22T08:11:25.580Z,52.50
2019-05-22T08:14:13.548Z,52.40
2019-05-22T08:16:42.459Z,52.60
2019-05-22T08:19:11.363Z,52.50
2019-05-22T08:22:07.138Z,52.40
2019-05-22T08:24:30.484Z,52.30
2019-05-22T08:26:59.705Z,52.20
2019-05-22T08:29:48.264Z,52.20
2019-05-22T08:32:29.344Z,52.10
2019-05-22T08:35:12.026Z,52.10
2019-05-22T08:37:41.046Z,51.80
2019-05-22T08:40:29.483Z,52.20
2019-05-22T08:42:58.740Z,52.00
2019-05-22T08:45:27.921Z,51.80
2019-05-22T08:48:16.657Z,51.90
2019-05-22T08:50:46.783Z,51.80
2019-05-22T08:53:46.810Z,51.50
2019-05-22T08:56:06.080Z,51.40
2019-05-22T09:01:44.033Z,51.30
2019-05-22T09:04:32.020Z,51.20
2019-05-22T09:07:01.309Z,51.10
2019-05-22T09:09:49.840Z,51.20
2019-05-22T09:15:08.425Z,50.80
2019-05-22T09:17:37.172Z,50.80
2019-05-22T09:20:06.153Z,51.00
2019-05-22T09:26:02.111Z,50.40
2019-05-22T09:28:50.035Z,51.10
2019-05-22T09:31:31.375Z,51.20
2019-05-22T09:34:00.080Z,51.20
2019-05-22T09:36:48.246Z,51.10
2019-05-22T09:39:17.191Z,51.20
2019-05-22T09:42:05.170Z,51.30
2019-05-22T09:44:34.107Z,51.00
2019-05-22T09:47:23.581Z,50.80
2019-05-22T09:50:12.192Z,50.60
2019-05-22T09:53:00.872Z,50.50
2019-05-22T09:55:49.761Z,50.60
2019-05-22T09:58:18.931Z,50.80
2019-05-22T10:04:16.447Z,50.70
2019-05-22T10:06:45.446Z,50.40
2019-05-22T10:09:33.835Z,50.30
2019-05-22T10:12:22.410Z,50.40
2019-05-22T10:15:10.839Z,50.30
2019-05-22T10:18:04.457Z,50.40
2019-05-22T10:20:33.223Z,50.40
2019-05-22T10:23:22.357Z,49.90
2019-05-22T10:26:11.049Z,49.70
2019-05-22T10:28:59.174Z,49.30
2019-05-22T10:31:40.654Z,49.40
2019-05-22T10:34:21.900Z,49.00
2019-05-22T10:36:50.691Z,48.40
2019-05-22T10:39:38.901Z,48.70
2019-05-22T10:42:27.573Z,48.80
2019-05-22T10:45:15.935Z,48.20
2019-05-22T10:48:05.492Z,47.80
2019-05-22T10:50:58.071Z,47.90
2019-05-22T10:57:02.750Z,48.00
2019-05-22T10:59:53.718Z,47.60
2019-05-22T11:02:43.749Z,47.20
2019-05-22T11:05:31.750Z,47.60
2019-05-22T11:08:19.755Z,47.90
2019-05-22T11:10:48.496Z,47.80
2019-05-22T11:13:36.577Z,47.40
2019-05-22T11:16:24.930Z,46.70
2019-05-22T11:19:13.522Z,46.60
2019-05-22T11:22:04.250Z,46.80
2019-05-22T11:24:33.226Z,47.00
2019-05-22T11:27:21.283Z,45.80
2019-05-22T11:30:09.379Z,45.50
2019-05-22T11:32:51.160Z,45.60
2019-05-22T11:35:37.928Z,45.40
2019-05-22T11:38:06.653Z,45.20
2019-05-22T11:40:54.671Z,45.10
2019-05-22T11:43:23.652Z,45.10
2019-05-22T11:46:12.126Z,44.90
2019-05-22T11:49:22.019Z,44.60
2019-05-22T11:52:10.822Z,44.60
2019-05-22T11:54:39.488Z,44.70
2019-05-22T12:02:45.182Z,41.40
2019-05-22T12:05:13.930Z,41.00
2019-05-22T12:10:51.724Z,41.90
2019-05-22T12:13:43.475Z,41.90
2019-05-22T12:16:31.397Z,42.00
2019-05-22T12:19:19.362Z,41.70
2019-05-22T12:22:10.538Z,41.10
2019-05-22T12:24:58.718Z,40.30
2019-05-22T12:27:46.919Z,39.90
2019-05-22T12:30:35.690Z,39.60
2019-05-22T12:33:23.900Z,39.60
2019-05-22T12:36:12.573Z,38.80
2019-05-22T12:39:01.186Z,38.70
2019-05-22T12:41:49.427Z,38.70
2019-05-22T12:44:37.738Z,38.60
2019-05-22T12:47:25.892Z,38.80
2019-05-22T12:50:14.088Z,39.10
2019-05-22T12:55:37.436Z,38.50
2019-05-22T12:58:06.625Z,38.80
2019-05-22T13:00:35.446Z,38.30
2019-05-22T13:03:23.688Z,37.50
2019-05-22T13:06:11.837Z,36.70
2019-05-22T13:09:00.894Z,36.50
2019-05-22T13:11:49.168Z,36.80
2019-05-22T13:14:18.264Z,37.40
2019-05-22T13:20:16.703Z,37.40
2019-05-22T13:26:13.941Z,37.00
2019-05-22T13:29:02.652Z,37.30
2019-05-22T13:31:44.298Z,37.00
2019-05-22T13:37:03.948Z,36.60
2019-05-22T13:39:52.440Z,36.40
2019-05-22T13:42:41.084Z,36.10
2019-05-22T13:45:30.446Z,35.80
2019-05-22T13:48:00.982Z,35.60
2019-05-22T13:50:49.537Z,35.40
2019-05-22T13:53:19.805Z,35.40
2019-05-22T13:58:57.543Z,35.20
2019-05-22T14:01:46.105Z,35.30
2019-05-22T14:04:40.321Z,35.50
2019-05-22T14:07:28.409Z,35.50
2019-05-22T14:09:57.117Z,35.40
2019-05-22T14:12:45.318Z,35.40
2019-05-22T14:15:49.991Z,35.40
2019-05-22T14:18:03.809Z,35.40
2019-05-22T14:20:52.154Z,35.80
2019-05-22T14:23:21.286Z,35.60
2019-05-22T14:26:09.872Z,36.00
2019-05-22T14:28:57.887Z,35.90
2019-05-22T14:31:27.546Z,35.80
2019-05-22T14:34:15.607Z,35.80
2019-05-22T14:39:39.939Z,36.10
2019-05-22T14:42:28.411Z,36.20
2019-05-22T14:45:16.654Z,36.20
2019-05-22T14:48:04.823Z,36.40
2019-05-22T14:50:33.593Z,36.40
2019-05-22T14:53:22.077Z,36.60
2019-05-22T14:59:17.532Z,36.90
2019-05-22T15:01:46.718Z,37.10
2019-05-22T15:04:35.384Z,37.30
2019-05-22T15:07:23.423Z,37.30
2019-05-22T15:10:11.581Z,37.50
2019-05-22T15:12:40.494Z,37.40
2019-05-22T15:15:29.291Z,37.50
2019-05-22T15:18:17.647Z,37.40
2019-05-22T15:21:05.490Z,37.30
2019-05-22T15:26:27.530Z,37.40
2019-05-22T15:29:15.972Z,37.20
2019-05-22T15:31:45.003Z,37.10
2019-05-22T15:34:33.534Z,37.20
2019-05-22T15:37:22.034Z,37.10
2019-05-22T15:40:13.691Z,37.00
2019-05-22T15:43:04.089Z,37.10
2019-05-22T15:45:52.396Z,37.30
2019-05-22T15:48:40.651Z,37.20
2019-05-22T15:54:18.824Z,37.30
2019-05-22T15:56:48.219Z,37.20
2019-05-22T15:59:49.640Z,37.20
2019-05-22T16:02:06.676Z,37.40
2019-05-22T16:05:14.158Z,37.60
2019-05-22T16:07:42.967Z,37.50
2019-05-22T16:19:25.525Z,37.90
2019-05-22T16:22:13.850Z,38.00
2019-05-22T16:27:57.859Z,38.00
2019-05-22T16:30:46.750Z,38.10
2019-05-22T16:33:29.533Z,38.30
2019-05-22T16:36:11.156Z,38.40
2019-05-22T16:38:52.450Z,38.20
2019-05-22T16:41:33.072Z,38.20
2019-05-22T16:44:14.148Z,38.30
2019-05-22T16:46:55.740Z,38.60
2019-05-22T16:49:24.751Z,38.60
2019-05-22T16:52:13.618Z,38.80
2019-05-22T16:55:01.631Z,38.70
2019-05-22T16:57:49.919Z,38.70
2019-05-22T17:00:38.117Z,38.60
2019-05-22T17:03:26.939Z,38.50
2019-05-22T17:06:15.455Z,38.50
2019-05-22T17:12:04.720Z,38.40
2019-05-22T17:17:33.930Z,39.00
2019-05-22T17:20:22.308Z,39.00
2019-05-22T17:23:10.501Z,39.20
2019-05-22T17:26:00.763Z,39.20
2019-05-22T17:28:49.409Z,39.20
2019-05-22T17:31:29.838Z,39.40
2019-05-22T17:37:21.460Z,39.80
2019-05-22T17:40:04.195Z,39.80
2019-05-22T17:42:45.965Z,39.90
2019-05-22T17:45:28.747Z,39.90
2019-05-22T17:48:09.582Z,39.90
2019-05-22T17:50:50.922Z,39.80
2019-05-22T17:53:31.764Z,39.90
2019-05-22T17:56:12.766Z,39.90
2019-05-22T17:58:53.948Z,40.00
2019-05-22T18:01:35.640Z,40.10
2019-05-22T18:04:17.437Z,40.20
2019-05-22T18:06:58.434Z,40.40
2019-05-22T18:09:39.822Z,40.70
2019-05-22T18:12:21.879Z,40.80
2019-05-22T18:17:54.006Z,41.00
2019-05-22T18:20:44.162Z,41.20
2019-05-22T18:23:44.319Z,41.20
2019-05-22T18:29:37.127Z,41.50
2019-05-22T18:32:18.296Z,41.50
2019-05-22T18:34:58.684Z,41.70
2019-05-22T18:37:39.975Z,41.70
2019-05-22T18:40:10.987Z,41.70
2019-05-22T18:42:40.047Z,41.80
2019-05-22T18:45:29.026Z,41.90
2019-05-22T18:51:13.283Z,42.10
2019-05-22T18:54:01.322Z,42.10
2019-05-22T18:56:49.294Z,42.40
2019-05-22T18:59:20.917Z,42.40
2019-05-22T19:02:09.524Z,42.60
2019-05-22T19:04:57.502Z,42.70
2019-05-22T19:07:26.172Z,42.80
2019-05-22T19:10:14.525Z,42.80
2019-05-22T19:13:02.746Z,42.80
2019-05-22T19:15:51.135Z,42.80
2019-05-22T19:18:39.244Z,43.00
2019-05-22T19:21:09.129Z,43.00
2019-05-22T19:23:57.651Z,43.20
2019-05-22T19:26:26.666Z,43.10
2019-05-22T19:29:15.438Z,43.20
2019-05-22T19:31:56.139Z,43.30
2019-05-22T19:34:37.820Z,43.30
2019-05-22T19:37:18.970Z,43.40
2019-05-22T19:39:48.262Z,43.50
2019-05-22T19:44:53.630Z,43.70
2019-05-22T19:47:45.139Z,43.70
2019-05-22T19:50:34.455Z,43.80
2019-05-22T19:53:22.979Z,43.70
2019-05-22T19:56:11.194Z,43.80
2019-05-22T19:58:59.748Z,43.90
2019-05-22T20:01:48.089Z,43.90
2019-05-22T20:04:36.117Z,44.10
2019-05-22T20:07:24.126Z,44.10
2019-05-22T20:10:15.208Z,44.10
2019-05-22T20:13:04.358Z,44.30
2019-05-22T20:15:52.564Z,44.30
2019-05-22T20:18:40.901Z,44.30
2019-05-22T20:23:45.880Z,44.40
2019-05-22T20:26:33.912Z,44.50
2019-05-22T20:29:21.890Z,44.50
2019-05-22T20:32:03.152Z,44.60
2019-05-22T20:37:33.605Z,44.60
2019-05-22T20:40:14.387Z,44.70
2019-05-22T20:42:56.006Z,44.80
2019-05-22T20:45:36.852Z,44.80
2019-05-22T20:48:19.261Z,44.90
2019-05-22T20:51:01.692Z,45.00
2019-05-22T20:53:53.547Z,45.00
2019-05-22T20:56:27.606Z,45.00
2019-05-22T20:59:09.410Z,45.20
2019-05-22T21:01:51.658Z,45.10
2019-05-22T21:04:33.498Z,45.20
2019-05-22T21:07:14.771Z,45.30
2019-05-22T21:09:55.389Z,45.40
2019-05-22T21:12:37.123Z,45.40
2019-05-22T21:15:18.278Z,45.30
2019-05-22T21:18:00.852Z,45.50
2019-05-22T21:20:54.265Z,45.50
2019-05-22T21:23:25.291Z,45.50
2019-05-22T21:26:07.300Z,45.60
2019-05-22T21:28:36.417Z,45.70
2019-05-22T21:31:35.947Z,46.30
2019-05-22T21:37:13.457Z,45.80
2019-05-22T21:42:35.534Z,45.90
2019-05-22T21:48:33.732Z,46.10
2019-05-22T21:51:21.820Z,46.10
2019-05-22T21:54:10.159Z,46.10
2019-05-22T21:56:59.106Z,46.20
2019-05-22T21:59:47.538Z,46.20
2019-05-22T22:05:45.673Z,46.30
2019-05-22T22:08:34.302Z,46.30
2019-05-22T22:13:39.389Z,46.50
2019-05-22T22:22:37.998Z,46.60
2019-05-22T22:25:26.058Z,46.50
2019-05-22T22:34:12.509Z,46.90
2019-05-22T22:36:54.182Z,46.90
2019-05-22T22:39:37.154Z,46.90
2019-05-22T22:42:18.899Z,46.90
2019-05-22T22:44:59.932Z,46.90
2019-05-22T22:47:46.000Z,47.00
2019-05-22T22:50:28.712Z,47.00
2019-05-22T22:53:10.244Z,47.00
2019-05-22T22:55:51.624Z,47.10
2019-05-22T22:58:33.122Z,47.00
2019-05-22T23:01:15.391Z,47.10
2019-05-22T23:03:56.672Z,47.10
2019-05-22T23:09:18.123Z,47.20
2019-05-22T23:11:59.737Z,47.10
2019-05-22T23:14:41.036Z,47.20
2019-05-22T23:17:22.206Z,47.50
2019-05-22T23:20:04.831Z,47.30
2019-05-22T23:22:46.496Z,47.30
2019-05-22T23:25:27.327Z,47.40
2019-05-22T23:28:08.405Z,47.50
2019-05-22T23:30:50.611Z,47.50
2019-05-22T23:33:32.210Z,47.60
2019-05-22T23:36:13.420Z,47.60
2019-05-22T23:38:54.267Z,47.60
2019-05-22T23:44:41.851Z,47.40
2019-05-22T23:47:23.583Z,47.60
2019-05-22T23:49:52.968Z,47.60
2019-05-22T23:52:41.016Z,47.60
2019-05-22T23:55:10.676Z,47.60
2019-05-22T23:57:59.724Z,47.80
